Weather observations for the past three days for
Port Lavaca - Calhoun County Airport
| Date | Time (cdt) | Wind (kph) | Vis. (km) | Weather | Sky Cond. | Temperature (ºC) | Relative Humidity | Wind Chill (°C) | Heat Index (°C) | Pressure | Precipitation (cm) | ||||||
|---|---|---|---|---|---|---|---|---|---|---|---|---|---|---|---|---|---|
| Air | Dwpt | 6 hour | altimeter (cm) | sea level (mb) | 1 hr | 3 hr | 6 hr | ||||||||||
| Max. | Min. | ||||||||||||||||
| 05 | 12:55 | E 15 | 16.09 | Mostly Cloudy | FEW032 SCT041 BKN055 BKN095 | 31.1 | 27 | 33.3 | 25.8 | 79% | 41 | 75.95 | 0.0 | 0.2 | 0.84 | ||
| 05 | 12:35 | E 13 | 16.09 | Partly Cloudy | FEW039 SCT048 SCT065 | 30.7 | 26.8 | 80% | 40 | 75.97 | 0.0 | 0.2 | |||||
| 05 | 12:15 | E 15 | 12.87 | Overcast | FEW007 BKN037 BKN046 OVC065 | 29.7 | 26.9 | 85% | 38 | 75.97 | 0.0 | 0.2 | |||||
| 05 | 11:55 | NW 19 G 30 | 12.87 | Mostly Cloudy | BKN032 BKN055 | 29.1 | 26 | 83% | 36 | 76 | 0.0 | 0.64 | |||||
| 05 | 11:15 | Vrbl 7 | 16.09 | Overcast | FEW029 BKN036 OVC045 | 31.7 | 26.7 | 75% | 41 | 76 | 0.0 | ||||||
| 05 | 10:55 | Calm | 16.09 | Overcast | BKN032 BKN044 OVC055 | 31.3 | 25.6 | 72% | 39 | 76 | 0.0 | ||||||
| 05 | 10:35 | SW 7 | 16.09 | Overcast | OVC030 | 31.4 | 26.1 | 73% | 40 | 76 | 0.0 | ||||||
| 05 | 10:15 | S 6 | 16.09 | Partly Cloudy | SCT028 SCT034 | 32 | 26.4 | 72% | 41 | 76 | 0.0 | ||||||
| 05 | 09:55 | Calm | 16.09 | A Few Clouds | FEW070 | 30.2 | 26.2 | 79% | 38 | 76 | 0.0 | ||||||
| 05 | 09:35 | Calm | 14.48 | Fair | CLR | 30.5 | 26.9 | 81% | 40 | 76 | 0.0 | ||||||
| 05 | 09:15 | Calm | 14.48 | Fair | CLR | 30 | 27.4 | 86% | 39 | 76 | 0.0 | ||||||
| 05 | 08:55 | Calm | 16.09 | Fair | CLR | 29.4 | 27.3 | 88% | 38 | 75.97 | 0.0 | ||||||
| 05 | 08:35 | Calm | 14.48 | Fair | CLR | 28.9 | 27.4 | 92% | 37 | 75.95 | 0.0 | ||||||
| 05 | 08:15 | Calm | 12.87 | Fair | CLR | 27.9 | 27.3 | 97% | 35 | 75.95 | 0.0 | ||||||
| 05 | 07:55 | Calm | 11.27 | Fair | CLR | 26.5 | 26.5 | 100% | 30 | 75.92 | 0.0 | ||||||
| 05 | 07:35 | Calm | 11.27 | Fair | CLR | 26.1 | 26.1 | 100% | 29 | 75.92 | 0.0 | ||||||
| 05 | 07:15 | Calm | 12.87 | Fair | CLR | 25.9 | 25.8 | 99% | 28 | 75.9 | 0.0 | ||||||
| 05 | 06:55 | Calm | 14.48 | Fair | CLR | 26.2 | 25.9 | 28.3 | 25.9 | 98% | 29 | 75.9 | 0.0 | ||||
| 05 | 06:35 | Calm | 16.09 | Fair | CLR | 25.9 | 25.6 | 98% | 28 | 75.9 | 0.0 | ||||||
| 05 | 06:15 | Calm | 16.09 | Fair | CLR | 26.5 | 26.5 | 100% | 30 | 75.87 | 0.0 | ||||||
| 05 | 05:55 | Calm | 16.09 | Fair | CLR | 26.9 | 26.6 | 98% | 31 | 75.87 | 0.0 | ||||||
| 05 | 05:35 | Calm | 16.09 | A Few Clouds | FEW021 | 27 | 26.6 | 98% | 32 | 75.84 | 0.0 | ||||||
| 05 | 05:15 | S 7 | 16.09 | Fair | CLR | 27 | 26.7 | 98% | 32 | 75.82 | 0.0 | ||||||
| 05 | 04:55 | S 7 | 14.48 | A Few Clouds | FEW140 | 27.2 | 26.8 | 98% | 32 | 75.84 | 0.0 | ||||||
| 05 | 04:35 | S 6 | 16.09 | Mostly Cloudy | FEW140 BKN190 | 27.4 | 27 | 98% | 33 | 75.84 | 0.0 | ||||||
| 05 | 04:15 | S 7 | 16.09 | Mostly Cloudy | FEW160 BKN190 | 27.5 | 27.2 | 98% | 33 | 75.84 | 0.0 | ||||||
| 05 | 03:55 | S 6 | 16.09 | Overcast | BKN140 OVC190 | 27.4 | 26.9 | 97% | 33 | 75.84 | 0.0 | ||||||
| 05 | 03:35 | SE 7 | 16.09 | Mostly Cloudy | BKN140 | 27.5 | 27 | 97% | 33 | 75.84 | 0.0 | ||||||
| 05 | 03:15 | SE 7 | 16.09 | Mostly Cloudy | SCT140 BKN160 | 27.7 | 26.9 | 95% | 34 | 75.87 | 0.0 | ||||||
| 05 | 02:55 | SE 9 | 16.09 | Overcast | OVC160 | 27.9 | 26.9 | 94% | 34 | 75.87 | 0.0 | ||||||
| 05 | 02:35 | SE 7 | 16.09 | Overcast | OVC160 | 27.9 | 26.8 | 94% | 34 | 75.87 | 0.0 | ||||||
| 05 | 02:15 | SE 7 | 16.09 | Overcast | OVC160 | 28 | 26.9 | 94% | 34 | 75.9 | 0.0 | ||||||
| 05 | 01:55 | S 9 | 14.48 | Overcast | OVC160 | 28.2 | 27.1 | 94% | 35 | 75.92 | 0.0 | ||||||
| 05 | 01:35 | S 11 | 14.48 | Overcast | OVC160 | 28.2 | 27 | 93% | 35 | 75.92 | 0.0 | ||||||
| 05 | 01:15 | SE 9 | 12.87 | Overcast | OVC160 | 28.1 | 27 | 94% | 35 | 75.92 | 0.0 | ||||||
| 05 | 00:55 | S 11 | 12.87 | Overcast | OVC160 | 28.2 | 26.9 | 31.2 | 28.1 | 93% | 35 | 75.92 | 0.0 | ||||
| 05 | 00:35 | SE 9 | 14.48 | Overcast | OVC160 | 28.2 | 26.7 | 92% | 35 | 75.92 | 0.0 | ||||||
| 05 | 00:15 | S 9 | 12.87 | Overcast | OVC160 | 28.2 | 26.8 | 92% | 35 | 75.95 | 0.0 | ||||||
| 04 | 23:55 | SE 13 | 14.48 | Overcast | OVC150 | 28.5 | 26.7 | 90% | 35 | 75.95 | 0.0 | ||||||
| 04 | 23:35 | SE 13 | 14.48 | Overcast | OVC150 | 28.6 | 26.5 | 88% | 35 | 75.95 | 0.0 | ||||||
| 04 | 23:15 | SE 15 | 14.48 | Mostly Cloudy | BKN150 | 28.6 | 26.4 | 88% | 35 | 75.95 | 0.0 | ||||||
| 04 | 22:55 | SE 17 | 14.48 | Mostly Cloudy | BKN150 | 28.8 | 26.5 | 87% | 36 | 75.95 | 0.0 | ||||||
| 04 | 22:35 | SE 15 | 14.48 | Mostly Cloudy | BKN150 | 28.8 | 26.5 | 87% | 36 | 75.97 | 0.0 | ||||||
| 04 | 22:15 | SE 19 | 16.09 | A Few Clouds | FEW160 | 28.8 | 26.2 | 86% | 35 | 75.95 | 0.0 | ||||||
| 04 | 21:55 | SE 15 | 14.48 | Mostly Cloudy | BKN160 | 28.9 | 26 | 84% | 35 | 75.92 | 0.0 | ||||||
| 04 | 21:35 | SE 15 | 14.48 | Mostly Cloudy | BKN160 | 28.9 | 26.1 | 85% | 36 | 75.92 | 0.0 | ||||||
| 04 | 21:15 | SE 15 | 16.09 | Mostly Cloudy | BKN150 | 29 | 26.2 | 85% | 36 | 75.92 | 0.0 | ||||||
| 04 | 20:55 | SE 17 | 16.09 | Mostly Cloudy | BKN150 | 29.2 | 26.5 | 85% | 37 | 75.9 | 0.0 | ||||||
| 04 | 20:35 | SE 20 | 16.09 | A Few Clouds | FEW140 | 29.3 | 26.7 | 86% | 37 | 75.87 | 0.0 | ||||||
| 04 | 20:15 | SE 19 | 16.09 | Fair | CLR | 29.5 | 26.5 | 84% | 37 | 75.87 | 0.0 | ||||||
| 04 | 19:55 | SE 22 | 16.09 | Fair | CLR | 29.9 | 26.4 | 82% | 38 | 75.84 | 0.0 | ||||||
| 04 | 19:35 | SE 20 | 14.48 | Fair | CLR | 30.2 | 26.6 | 81% | 39 | 75.84 | 0.0 | ||||||
| 04 | 19:15 | SE 26 | 16.09 | Fair | CLR | 30.8 | 26.8 | 79% | 40 | 75.84 | 0.0 | ||||||
| 04 | 18:55 | SE 24 | 16.09 | Fair | CLR | 31.1 | 26.8 | 35.5 | 31 | 78% | 40 | 75.82 | 0.0 | ||||
| 04 | 18:35 | SE 28 | 16.09 | Fair | CLR | 31.4 | 26.9 | 77% | 41 | 75.82 | 0.0 | ||||||
| 04 | 18:15 | SE 28 | 16.09 | Fair | CLR | 31.6 | 26.6 | 75% | 41 | 75.82 | 0.0 | ||||||
| 04 | 17:35 | SE 26 G 35 | 16.09 | Fair | CLR | 33 | 26.8 | 70% | 43 | 75.82 | 0.0 | ||||||
| 04 | 17:15 | E 28 | 16.09 | Fair | CLR | 32.5 | 25.9 | 68% | 41 | 75.84 | 0.0 | ||||||
| 04 | 16:55 | SE 30 | 16.09 | Fair | CLR | 33.6 | 26.2 | 65% | 43 | 75.84 | 0.0 | ||||||
| 04 | 16:35 | SE 30 G 39 | 16.09 | Fair | CLR | 34 | 25.7 | 62% | 43 | 75.84 | 0.0 | ||||||
| 04 | 16:15 | E 28 | 16.09 | Fair | CLR | 34.2 | 25.7 | 61% | 43 | 75.87 | 0.0 | ||||||
| 04 | 15:55 | SE 26 G 33 | 16.09 | Fair | CLR | 34.5 | 25.3 | 59% | 43 | 75.87 | 0.0 | ||||||
| 04 | 15:35 | SE 30 | 16.09 | Fair | CLR | 34 | 25.2 | 60% | 42 | 75.87 | 0.0 | ||||||
| 04 | 15:15 | SE 24 G 37 | 16.09 | Fair | CLR | 34.6 | 25.3 | 58% | 43 | 75.9 | 0.0 | ||||||
| 04 | 14:55 | SE 26 | 16.09 | Fair | CLR | 34.9 | 24.7 | 55% | 43 | 75.87 | 0.0 | ||||||
| 04 | 14:35 | E 30 | 16.09 | A Few Clouds | FEW380 | 35.1 | 25.3 | 57% | 44 | 75.87 | 0.0 | ||||||
| 04 | 14:15 | SE 30 | 16.09 | Partly Cloudy | SCT055 | 34.8 | 25.5 | 58% | 44 | 75.9 | 0.0 | ||||||
| 04 | 13:55 | E 13 | 16.09 | Mostly Cloudy | SCT047 BKN060 | 34.2 | 24.1 | 56% | 41 | 75.92 | 0.0 | ||||||
| 04 | 13:35 | SE 20 | 16.09 | Partly Cloudy | SCT047 | 33.4 | 24.6 | 60% | 41 | 75.95 | 0.0 | ||||||
| 04 | 13:15 | E 19 | 16.09 | Mostly Cloudy | FEW039 SCT055 SCT075 BKN170 | 34.3 | 25.8 | 61% | 44 | 75.95 | 0.0 | ||||||
| 04 | 12:55 | SE 22 | 16.09 | Mostly Cloudy | SCT038 BKN050 BKN060 BKN075 | 34.4 | 26.1 | 34.5 | 25.5 | 62% | 44 | 75.97 | 0.0 | ||||
| 04 | 12:35 | SE 13 | 16.09 | Partly Cloudy | SCT038 | 33.3 | 25.4 | 63% | 42 | 76 | 0.0 | ||||||
| 04 | 12:15 | S 13 | 16.09 | Partly Cloudy | SCT042 | 34.1 | 24.5 | 57% | 41 | 76 | 0.0 | ||||||
| 04 | 11:55 | S 11 | 16.09 | A Few Clouds | FEW042 | 34.1 | 24.3 | 57% | 41 | 76 | 0.0 | ||||||
| 04 | 11:35 | S 17 | 16.09 | A Few Clouds | FEW037 | 32.8 | 24.8 | 63% | 40 | 76.02 | 0.0 | ||||||
| 04 | 11:15 | SW 15 | 16.09 | A Few Clouds | FEW036 | 32.4 | 25.3 | 66% | 40 | 76.02 | 0.0 | ||||||
| 04 | 10:55 | S 15 | 16.09 | Partly Cloudy | SCT031 | 32.3 | 25.1 | 66% | 40 | 76.02 | 0.0 | ||||||
| 04 | 10:35 | SW 11 | 14.48 | A Few Clouds | FEW027 | 31.5 | 25.7 | 71% | 39 | 76.02 | 0.0 | ||||||
| 04 | 10:15 | S 7 | 16.09 | A Few Clouds | FEW024 | 30.7 | 26.5 | 78% | 39 | 76 | 0.0 | ||||||
| 04 | 09:55 | S 7 | 16.09 | Partly Cloudy | SCT025 SCT031 | 29.7 | 26.7 | 84% | 38 | 76 | 0.0 | ||||||
| 04 | 09:35 | SE 7 | 16.09 | Fair | CLR | 29.4 | 26.9 | 86% | 38 | 76 | 0.0 | ||||||
| 04 | 09:15 | Calm | 14.48 | Fair | CLR | 28.8 | 27 | 90% | 36 | 76 | 0.0 | ||||||
| 04 | 08:55 | Calm | 14.48 | Fair | CLR | 28.3 | 26.7 | 91% | 35 | 75.97 | 0.0 | ||||||
| 04 | 08:15 | Calm | 16.09 | Fair | CLR | 27.5 | 26 | 92% | 32 | 75.95 | 0.0 | ||||||
| 04 | 07:55 | Calm | 14.48 | Partly Cloudy | SCT020 | 26.4 | 26 | 98% | 30 | 75.92 | 0.0 | ||||||
| 04 | 07:35 | Calm | 11.27 | Partly Cloudy | SCT019 | 26.2 | 25.5 | 96% | 29 | 75.92 | 0.0 | ||||||
| 04 | 07:15 | Calm | 9.66 | Fog/Mist | CLR | 25.7 | 25 | 96% | 27 | 75.92 | 0.0 | ||||||
| 04 | 06:55 | Calm | 12.87 | A Few Clouds | FEW180 | 25.6 | 24.1 | 28.3 | 25.4 | 91% | 27 | 75.9 | 0.0 | ||||
| 04 | 06:35 | Calm | 12.87 | Fair | CLR | 25.6 | 23.6 | 89% | 27 | 75.9 | 0.0 | ||||||
| 04 | 06:15 | Calm | 8.05 | Fog/Mist | FEW160 | 25.8 | 24.2 | 91% | 28 | 75.9 | 0.0 | ||||||
| 04 | 05:55 | Calm | 11.27 | A Few Clouds | FEW160 | 26.1 | 25.1 | 94% | 28 | 75.9 | 0.0 | ||||||
| 04 | 05:35 | Calm | 16.09 | Partly Cloudy | SCT160 | 26.6 | 25.9 | 96% | 30 | 75.87 | 0.0 | ||||||
| 04 | 05:15 | Calm | 14.48 | Fair | CLR | 26.6 | 26.1 | 97% | 30 | 75.87 | 0.0 | ||||||
| 04 | 04:55 | Calm | 16.09 | Fair | CLR | 26.7 | 26 | 96% | 30 | 75.87 | 0.0 | ||||||
| 04 | 04:35 | S 6 | 16.09 | Fair | CLR | 27 | 26.2 | 95% | 31 | 75.87 | 0.0 | ||||||
| 04 | 04:15 | Calm | 16.09 | Thunderstorm in Vicinity | CLR | 26.8 | 25.9 | 95% | 31 | 75.87 | 0.0 | ||||||
| 04 | 03:55 | S 7 | 16.09 | Mostly Cloudy | BKN180 | 27.2 | 26.2 | 94% | 32 | 75.87 | 0.0 | ||||||
| 04 | 03:35 | S 7 | 16.09 | Thunderstorm in Vicinity | OVC170 | 27.5 | 26.2 | 93% | 33 | 75.84 | 0.0 | ||||||
| 04 | 03:15 | S 6 | 16.09 | Overcast | BKN170 OVC190 | 27.7 | 26.2 | 92% | 33 | 75.84 | 0.0 | ||||||
| 04 | 02:55 | S 7 | 16.09 | Mostly Cloudy | BKN170 BKN190 | 27.8 | 26.3 | 92% | 33 | 75.87 | 0.0 | ||||||
| 04 | 02:35 | S 9 | 16.09 | Overcast | OVC180 | 28.1 | 26.5 | 91% | 34 | 75.87 | 0.0 | ||||||
| 04 | 02:15 | S 11 | 16.09 | Overcast | FEW160 OVC190 | 28.1 | 26.7 | 92% | 34 | 75.87 | 0.0 | ||||||
| 04 | 01:55 | SE 11 | 16.09 | Overcast | OVC180 | 28.3 | 26.7 | 91% | 35 | 75.9 | 0.0 | ||||||
| 04 | 01:35 | SE 11 | 16.09 | Overcast | FEW023 OVC180 | 28.2 | 26.8 | 92% | 35 | 75.9 | 0.0 | ||||||
| 04 | 01:15 | SE 9 | 16.09 | Mostly Cloudy | FEW024 SCT160 BKN190 | 28.2 | 26.8 | 92% | 35 | 75.9 | 0.0 | ||||||
| 04 | 00:55 | SE 11 | 16.09 | Mostly Cloudy | BKN190 | 27.8 | 26.6 | 31 | 27.8 | 93% | 34 | 75.9 | 0.0 | ||||
| 04 | 00:35 | S 7 | 16.09 | Overcast | OVC190 | 28 | 26.6 | 92% | 34 | 75.9 | 0.0 | ||||||
| 04 | 00:15 | SE 9 | 16.09 | Overcast | BKN180 OVC310 | 28.3 | 26.6 | 91% | 35 | 75.9 | 0.0 | ||||||
| 03 | 23:55 | SE 11 | 16.09 | Mostly Cloudy | BKN310 | 28.6 | 26.6 | 89% | 35 | 75.9 | 0.0 | ||||||
| 03 | 23:35 | SE 13 | 16.09 | Overcast | OVC310 | 28.7 | 26.7 | 89% | 36 | 75.9 | 0.0 | ||||||
| 03 | 23:15 | SE 13 | 16.09 | Overcast | OVC310 | 28.8 | 26.7 | 88% | 36 | 75.9 | 0.0 | ||||||
| 03 | 22:55 | SE 13 | 16.09 | Partly Cloudy | SCT300 | 28.9 | 26.5 | 87% | 36 | 75.9 | 0.0 | ||||||
| 03 | 22:35 | SE 17 | 16.09 | Fair | CLR | 29 | 26.6 | 87% | 36 | 75.9 | 0.0 | ||||||
| 03 | 22:15 | SE 17 | 16.09 | Fair | CLR | 29.2 | 26.6 | 86% | 37 | 75.9 | 0.0 | ||||||
| 03 | 21:55 | SE 15 | 16.09 | A Few Clouds | FEW320 | 29.2 | 26.5 | 85% | 37 | 75.9 | 0.0 | ||||||
| 03 | 21:35 | SE 19 | 16.09 | A Few Clouds | FEW320 | 29.5 | 26.6 | 84% | 37 | 75.9 | 0.0 | ||||||
| 03 | 21:15 | SE 19 | 16.09 | Partly Cloudy | SCT320 | 29.5 | 26.5 | 84% | 37 | 75.87 | 0.0 | ||||||
| 03 | 20:55 | SE 19 | 16.09 | Fair | CLR | 29.6 | 26.4 | 83% | 37 | 75.87 | 0.0 | ||||||
| 03 | 20:35 | SE 20 | 16.09 | Fair | CLR | 29.7 | 26.3 | 82% | 37 | 75.84 | 0.0 | ||||||
| 03 | 20:15 | SE 19 | 16.09 | A Few Clouds | FEW025 | 29.9 | 26.3 | 81% | 38 | 75.84 | 0.0 | ||||||
| 03 | 19:55 | SE 20 | 16.09 | A Few Clouds | FEW026 | 30.3 | 26.4 | 80% | 38 | 75.82 | 0.0 | ||||||
| 03 | 19:35 | SE 20 | 14.48 | Fair | CLR | 30.4 | 25.9 | 77% | 38 | 75.82 | 0.0 | ||||||
| 03 | 19:15 | SE 24 G 35 | 14.48 | Fair | CLR | 30.6 | 25.7 | 75% | 38 | 75.82 | 0.0 | ||||||
| 03 | 18:55 | SE 26 | 14.48 | Fair | CLR | 31.1 | 25.2 | 36.3 | 31.1 | 71% | 38 | 75.82 | 0.0 | ||||
| 03 | 18:35 | SE 26 G 37 | 16.09 | Fair | CLR | 31.3 | 26.1 | 74% | 40 | 75.82 | 0.0 | ||||||
| 03 | 18:15 | SE 31 | 16.09 | Fair | CLR | 31.7 | 26.2 | 73% | 40 | 75.82 | 0.0 | ||||||
| 03 | 17:55 | SE 30 | 16.09 | Fair | CLR | 32.6 | 25.7 | 67% | 41 | 75.79 | 0.0 | ||||||
| 03 | 17:35 | E 22 | 16.09 | Fair | CLR | 33.3 | 25.4 | 63% | 42 | 75.79 | 0.0 | ||||||
| 03 | 17:15 | E 28 G 37 | 16.09 | Fair | CLR | 33.6 | 25.5 | 63% | 42 | 75.79 | 0.0 | ||||||
| 03 | 16:55 | E 26 | 16.09 | Fair | CLR | 33.6 | 25.3 | 62% | 42 | 75.79 | 0.0 | ||||||
| 03 | 16:35 | SE 30 | 16.09 | Fair | CLR | 34.4 | 25 | 58% | 42 | 75.82 | 0.0 | ||||||
| 03 | 16:15 | SE 26 | 16.09 | A Few Clouds | FEW044 | 34.7 | 25.1 | 57% | 43 | 75.79 | 0.0 | ||||||
| 03 | 15:55 | E 28 | 16.09 | A Few Clouds | FEW050 | 35.4 | 24.5 | 53% | 43 | 75.79 | 0.0 | ||||||
| 03 | 15:35 | SE 30 G 39 | 16.09 | Partly Cloudy | SCT050 | 35.4 | 25 | 55% | 44 | 75.82 | 0.0 | ||||||
| 03 | 15:15 | SE 26 G 33 | 16.09 | A Few Clouds | FEW050 | 35.8 | 23.2 | 48% | 42 | 75.82 | 0.0 | ||||||
| 03 | 14:55 | S 17 | 16.09 | Partly Cloudy | SCT050 | 36.3 | 23.2 | 47% | 42 | 75.84 | 0.0 | ||||||
| 03 | 14:35 | S 20 G 30 | 16.09 | Partly Cloudy | SCT050 | 36.1 | 23.4 | 48% | 42 | 75.84 | 0.0 | ||||||
| 03 | 14:15 | SE 17 G 30 | 16.09 | Fair | CLR | 35.6 | 23.1 | 48% | 41 | 75.84 | 0.0 | ||||||
| 03 | 13:55 | SW 20 | 16.09 | Fair | CLR | 35.4 | 21.1 | 43% | 39 | 75.9 | 0.0 | ||||||
| 03 | 13:35 | S 19 G 28 | 16.09 | Fair | CLR | 35.7 | 21.8 | 44% | 40 | 75.9 | 0.0 | ||||||
| 03 | 13:15 | S 24 | 16.09 | Fair | CLR | 35.8 | 21.9 | 44% | 40 | 75.92 | 0.0 | ||||||
| 03 | 13:10 | S 13 | 16.09 | Fair | CLR | 36 | 23 | 47% | 42 | 75.92 | 0.0 | ||||||
| 03 | 12:55 | SW 19 G 31 | 16.09 | A Few Clouds | FEW046 | 35.2 | 23.2 | 35.5 | 27.7 | 50% | 41 | 75.95 | 0.0 | ||||
| 03 | 12:35 | S 20 | 16.09 | Fair | CLR | 35 | 23.6 | 52% | 41 | 75.95 | 0.0 | ||||||
| 03 | 12:15 | S 20 | 16.09 | Fair | CLR | 34.9 | 23.8 | 52% | 41 | 75.95 | 0.0 | ||||||
| 03 | 11:55 | S 22 | 16.09 | Fair | CLR | 34.7 | 24 | 54% | 41 | 75.97 | 0.0 | ||||||
| 03 | 11:35 | S 20 | 16.09 | Fair | CLR | 34.4 | 24.3 | 56% | 41 | 75.97 | 0.0 | ||||||
| 03 | 11:15 | S 22 | 16.09 | Fair | CLR | 33.9 | 24.8 | 59% | 41 | 76 | 0.0 | ||||||
| 03 | 10:55 | S 20 | 16.09 | A Few Clouds | FEW032 | 33.4 | 25.4 | 63% | 42 | 76 | 0.0 | ||||||
| 03 | 10:35 | S 22 | 16.09 | A Few Clouds | FEW030 | 32.9 | 25.7 | 66% | 41 | 76 | 0.0 | ||||||
| 03 | 10:15 | S 22 | 16.09 | Fair | CLR | 32.1 | 26.3 | 71% | 41 | 76 | 0.0 | ||||||
| 03 | 09:55 | S 20 | 16.09 | Fair | CLR | 31.2 | 26.4 | 76% | 40 | 76 | 0.0 | ||||||
| 03 | 09:35 | S 19 | 16.09 | A Few Clouds | FEW021 | 30.6 | 26.7 | 80% | 39 | 76 | 0.0 | ||||||
| 03 | 09:15 | S 19 | 16.09 | Partly Cloudy | SCT020 | 30.8 | 27.1 | 81% | 40 | 76 | 0.0 | ||||||
| 03 | 08:35 | SW 15 | 16.09 | Fair | CLR | 29.6 | 27.6 | 89% | 39 | 76 | 0.0 | ||||||
| 03 | 08:15 | SW 13 | 16.09 | Fair | CLR | 28.9 | 27.6 | 93% | 37 | 76 | 0.0 | ||||||
| 03 | 07:55 | SW 11 | 16.09 | Fair | CLR | 28 | 27.3 | 96% | 35 | 75.97 | 0.0 | ||||||
| 03 | 07:35 | S 11 | 16.09 | Fair | CLR | 27.9 | 27.2 | 96% | 34 | 75.95 | 0.0 | ||||||
| 03 | 07:15 | SW 11 | 16.09 | Fair | CLR | 27.7 | 27.2 | 97% | 34 | 75.95 | 0.0 | ||||||
| 03 | 06:55 | SW 7 | 16.09 | Fair | CLR | 27.7 | 27.2 | 28.6 | 27.7 | 97% | 34 | 75.95 | 0.0 | ||||
| 03 | 06:35 | S 11 | 14.48 | Fair | CLR | 27.9 | 27.3 | 97% | 35 | 75.92 | 0.0 | ||||||
| 03 | 06:15 | S 11 | 16.09 | Fair | CLR | 28.2 | 27.3 | 95% | 35 | 75.92 | 0.0 | ||||||
| 03 | 05:55 | SW 11 | 14.48 | Fair | CLR | 28.4 | 27.3 | 94% | 36 | 75.92 | 0.0 | ||||||
| 03 | 05:35 | S 11 | 16.09 | A Few Clouds | FEW018 | 28.5 | 27.3 | 93% | 36 | 75.92 | 0.0 | ||||||
| 03 | 05:15 | S 11 | 16.09 | Partly Cloudy | SCT019 | 28.5 | 27.1 | 92% | 36 | 75.95 | 0.0 | ||||||
| 03 | 04:55 | S 11 | 16.09 | Partly Cloudy | SCT021 | 28.4 | 27.2 | 93% | 36 | 75.92 | 0.0 | ||||||
| 03 | 04:35 | S 9 | 14.48 | Partly Cloudy | SCT020 SCT028 | 28.1 | 27.3 | 95% | 35 | 75.95 | 0.0 | ||||||
| 03 | 04:15 | S 9 | 14.48 | Fair | CLR | 28.1 | 27.2 | 95% | 35 | 75.95 | 0.0 | ||||||
| 03 | 03:55 | S 13 | 14.48 | Fair | CLR | 28 | 27.1 | 95% | 35 | 75.92 | 0.0 | ||||||
| 03 | 03:35 | S 13 | 16.09 | Fair | CLR | 28.1 | 27 | 94% | 35 | 75.92 | 0.0 | ||||||
| 03 | 03:15 | S 11 | 16.09 | Fair | CLR | 27.8 | 26.8 | 94% | 34 | 75.92 | 0.0 | ||||||
| 03 | 02:55 | S 11 | 14.48 | Fair | CLR | 27.9 | 26.8 | 94% | 34 | 75.92 | 0.0 | ||||||
| 03 | 02:35 | S 9 | 16.09 | Fair | CLR | 28 | 26.8 | 93% | 34 | 75.95 | 0.0 | ||||||
| 03 | 02:15 | S 11 | 16.09 | Fair | CLR | 28.1 | 26.7 | 92% | 34 | 75.95 | 0.0 | ||||||
| 03 | 01:55 | S 11 | 16.09 | Fair | CLR | 28.1 | 26.8 | 93% | 35 | 75.95 | 0.0 | ||||||
| 03 | 01:35 | S 9 | 16.09 | A Few Clouds | FEW022 | 28.2 | 26.8 | 92% | 35 | 75.95 | 0.0 | ||||||
| 03 | 01:15 | S 15 | 16.09 | Partly Cloudy | SCT022 | 28.3 | 26.9 | 92% | 35 | 75.97 | 0.0 | ||||||
| 03 | 00:55 | S 13 | 16.09 | A Few Clouds | FEW021 | 28.2 | 26.9 | 31.6 | 28.2 | 93% | 35 | 75.97 | 0.0 | ||||
| 03 | 00:35 | S 11 | 16.09 | Fair | CLR | 28.3 | 26.9 | 92% | 35 | 75.97 | 0.0 | ||||||
| 03 | 00:15 | S 13 | 16.09 | Fair | CLR | 28.4 | 27 | 92% | 35 | 75.97 | 0.0 | ||||||
| 02 | 23:55 | SE 15 | 16.09 | Fair | CLR | 28.3 | 26.9 | 92% | 35 | 75.97 | 0.0 | ||||||
| 02 | 23:35 | S 11 | 16.09 | Fair | CLR | 28.2 | 26.6 | 91% | 35 | 75.97 | 0.0 | ||||||
| 02 | 23:15 | S 13 | 16.09 | Fair | CLR | 28.6 | 26.7 | 89% | 36 | 75.97 | 0.0 | ||||||
| 02 | 22:55 | S 15 | 16.09 | Fair | CLR | 28.6 | 26.6 | 89% | 35 | 75.97 | 0.0 | ||||||
| 02 | 22:35 | S 17 | 16.09 | Fair | CLR | 28.9 | 26.7 | 88% | 36 | 75.97 | 0.0 | ||||||
| 02 | 22:15 | S 17 | 14.48 | Fair | CLR | 28.9 | 26.7 | 88% | 36 | 75.95 | 0.0 | ||||||
| 02 | 21:55 | SE 17 | 14.48 | Fair | CLR | 29 | 26.7 | 87% | 36 | 75.92 | 0.0 | ||||||
| 02 | 21:35 | S 19 | 14.48 | Fair | CLR | 29 | 26.7 | 87% | 36 | 75.9 | 0.0 | ||||||
| 02 | 21:15 | S 17 | 14.48 | Fair | CLR | 29 | 26.6 | 87% | 36 | 75.9 | 0.0 | ||||||
| 02 | 20:55 | SE 19 | 14.48 | Fair | CLR | 29.2 | 26.7 | 86% | 37 | 75.87 | 0.0 | ||||||
| 02 | 20:35 | S 17 | 14.48 | Fair | CLR | 29.4 | 26.6 | 85% | 37 | 75.87 | 0.0 | ||||||
| 02 | 20:15 | SE 22 | 14.48 | Fair | CLR | 29.7 | 26.6 | 83% | 38 | 75.84 | 0.0 | ||||||
| 02 | 19:55 | S 24 | 12.87 | Fair | CLR | 30.1 | 26.3 | 80% | 38 | 75.84 | 0.0 | ||||||
| 02 | 19:35 | S 22 | 12.87 | Fair | CLR | 30.5 | 26.1 | 77% | 38 | 75.84 | 0.0 | ||||||
| 02 | 19:15 | S 30 | 16.09 | Fair | CLR | 31.2 | 26 | 74% | 39 | 75.84 | 0.0 | ||||||
| 02 | 18:55 | S 20 G 33 | 16.09 | Overcast | OVC100 | 32.2 | 25.6 | 36.4 | 32.2 | 68% | 40 | 76.53 | 0.0 | ||||
| 02 | 18:50 | SE 26 G 37 | 16.09 | Fair | CLR | 32.2 | 25.6 | 68% | 40 | 75.84 | 0.0 | ||||||
| 02 | 18:35 | S 28 G 35 | 16.09 | Fair | CLR | 32.5 | 25.2 | 65% | 40 | 75.84 | 0.0 | ||||||
| 02 | 18:15 | S 22 G 31 | 16.09 | Fair | CLR | 33.3 | 24.6 | 60% | 40 | 75.84 | 0.0 | ||||||
| 02 | 17:55 | S 22 | 16.09 | Fair | CLR | 34.1 | 23.4 | 54% | 40 | 75.82 | 0.0 | ||||||
| 02 | 17:35 | S 20 G 31 | 14.48 | Fair | CLR | 35 | 23 | 50% | 41 | 75.82 | 0.0 | ||||||
| 02 | 17:15 | S 20 G 35 | 16.09 | Fair | CLR | 35.1 | 22.1 | 47% | 40 | 75.82 | 0.0 | ||||||
| 02 | 16:55 | S 19 | 16.09 | Fair | CLR | 35.9 | 22.1 | 45% | 41 | 75.84 | 0.0 | ||||||
| 02 | 16:15 | S 22 | 16.09 | Fair | CLR | 35.7 | 20.8 | 42% | 39 | 75.84 | 0.0 | ||||||
| 02 | 15:55 | S 20 | 16.09 | Fair | CLR | 35.8 | 21.4 | 43% | 40 | 75.87 | 0.0 | ||||||
| 02 | 15:35 | S 19 G 33 | 16.09 | Fair | CLR | 35.7 | 22.7 | 47% | 41 | 75.9 | 0.0 | ||||||
| 02 | 15:15 | S 24 | 16.09 | Fair | CLR | 36.2 | 23.4 | 48% | 43 | 75.9 | 0.0 | ||||||
| 02 | 14:55 | S 19 | 16.09 | Fair | CLR | 35.9 | 24.1 | 51% | 43 | 75.92 | 0.0 | ||||||
| 02 | 14:35 | S 19 G 30 | 16.09 | Fair | CLR | 35.8 | 24.6 | 52% | 44 | 75.95 | 0.0 | ||||||
| 02 | 14:15 | S 20 | 16.09 | A Few Clouds | FEW046 | 35.8 | 24.9 | 53% | 44 | 75.95 | 0.0 | ||||||
| 02 | 13:55 | SW 15 | 14.48 | Fair | CLR | 35.6 | 23.9 | 51% | 42 | 75.97 | 0.0 | ||||||
| 02 | 13:35 | S 19 G 28 | 14.48 | A Few Clouds | FEW330 | 36 | 24.7 | 52% | 44 | 76 | 0.0 | ||||||
| Date | Time (cdt) | Wind (kph) | Vis. (km) | Weather | Sky Cond. | Air | Dwpt | Max. | Min. | Relative Humidity | Wind Chill (°C) | Heat Index (°C) | altimeter (cm) | sea level (mb) | 1 hr | 3 hr | 6 hr |
| 6 hour | |||||||||||||||||
| Temperature (ºC) | Pressure | Precipitation (cm) | |||||||||||||||